sensor_id;sensor_type;location;lat;lon;timestamp;P1;durP1;ratioP1;P2;durP2;ratioP2
76978;SDS011;65911;47.502;19.148;2022-12-10T00:00:35;3.85;;;2.85;;
76978;SDS011;65911;47.502;19.148;2022-12-10T00:03:38;3.13;;;2.80;;
76978;SDS011;65911;47.502;19.148;2022-12-10T00:06:40;3.60;;;3.30;;
76978;SDS011;65911;47.502;19.148;2022-12-10T00:09:43;2.60;;;2.40;;
76978;SDS011;65911;47.502;19.148;2022-12-10T00:12:46;3.60;;;3.25;;
76978;SDS011;65911;47.502;19.148;2022-12-10T00:15:48;3.50;;;3.13;;
76978;SDS011;65911;47.502;19.148;2022-12-10T00:18:50;3.50;;;3.10;;
76978;SDS011;65911;47.502;19.148;2022-12-10T00:21:53;3.40;;;2.85;;
76978;SDS011;65911;47.502;19.148;2022-12-10T00:24:55;3.85;;;3.20;;
76978;SDS011;65911;47.502;19.148;2022-12-10T00:27:57;3.87;;;3.50;;
76978;SDS011;65911;47.502;19.148;2022-12-10T00:31:03;3.30;;;2.83;;
76978;SDS011;65911;47.502;19.148;2022-12-10T00:34:10;3.72;;;3.17;;
76978;SDS011;65911;47.502;19.148;2022-12-10T00:37:12;4.28;;;3.33;;
76978;SDS011;65911;47.502;19.148;2022-12-10T00:40:14;3.45;;;3.15;;
76978;SDS011;65911;47.502;19.148;2022-12-10T00:43:16;3.38;;;2.70;;
76978;SDS011;65911;47.502;19.148;2022-12-10T00:46:19;3.33;;;2.83;;
76978;SDS011;65911;47.502;19.148;2022-12-10T00:49:21;3.50;;;2.70;;
76978;SDS011;65911;47.502;19.148;2022-12-10T00:52:26;3.60;;;3.20;;
76978;SDS011;65911;47.502;19.148;2022-12-10T00:55:28;3.58;;;2.95;;
76978;SDS011;65911;47.502;19.148;2022-12-10T00:58:31;3.10;;;2.80;;
76978;SDS011;65911;47.502;19.148;2022-12-10T01:01:38;2.92;;;2.55;;
76978;SDS011;65911;47.502;19.148;2022-12-10T01:04:42;3.25;;;2.72;;
76978;SDS011;65911;47.502;19.148;2022-12-10T01:07:44;3.08;;;2.72;;
76978;SDS011;65911;47.502;19.148;2022-12-10T01:10:52;4.00;;;2.85;;
76978;SDS011;65911;47.502;19.148;2022-12-10T01:13:54;5.70;;;3.38;;
76978;SDS011;65911;47.502;19.148;2022-12-10T01:16:58;3.97;;;3.25;;
76978;SDS011;65911;47.502;19.148;2022-12-10T01:20:04;2.70;;;2.50;;
76978;SDS011;65911;47.502;19.148;2022-12-10T01:23:08;3.38;;;3.03;;
76978;SDS011;65911;47.502;19.148;2022-12-10T01:26:11;3.20;;;2.60;;
76978;SDS011;65911;47.502;19.148;2022-12-10T01:29:17;3.90;;;2.80;;
76978;SDS011;65911;47.502;19.148;2022-12-10T01:32:20;3.50;;;3.20;;
76978;SDS011;65911;47.502;19.148;2022-12-10T01:35:22;2.90;;;2.53;;
76978;SDS011;65911;47.502;19.148;2022-12-10T01:38:24;3.22;;;2.83;;
76978;SDS011;65911;47.502;19.148;2022-12-10T01:41:30;3.78;;;2.50;;
76978;SDS011;65911;47.502;19.148;2022-12-10T01:47:42;3.63;;;2.83;;
76978;SDS011;65911;47.502;19.148;2022-12-10T01:50:45;2.90;;;2.37;;
76978;SDS011;65911;47.502;19.148;2022-12-10T01:53:47;3.10;;;2.80;;
76978;SDS011;65911;47.502;19.148;2022-12-10T01:56:50;4.20;;;2.60;;
76978;SDS011;65911;47.502;19.148;2022-12-10T01:59:59;2.97;;;2.67;;
76978;SDS011;65911;47.502;19.148;2022-12-10T02:03:18;3.55;;;2.95;;
76978;SDS011;65911;47.502;19.148;2022-12-10T02:16:21;3.25;;;2.42;;
76978;SDS011;65911;47.502;19.148;2022-12-10T02:19:50;2.40;;;2.20;;
76978;SDS011;65911;47.502;19.148;2022-12-10T02:22:57;3.93;;;2.90;;
76978;SDS011;65911;47.502;19.148;2022-12-10T02:26:15;2.88;;;2.45;;
76978;SDS011;65911;47.502;19.148;2022-12-10T02:29:21;3.03;;;2.60;;
76978;SDS011;65911;47.502;19.148;2022-12-10T02:32:31;3.73;;;2.80;;
76978;SDS011;65911;47.502;19.148;2022-12-10T02:35:36;3.05;;;2.40;;
76978;SDS011;65911;47.502;19.148;2022-12-10T02:38:41;3.25;;;2.65;;
76978;SDS011;65911;47.502;19.148;2022-12-10T02:41:46;3.10;;;2.78;;
76978;SDS011;65911;47.502;19.148;2022-12-10T02:44:52;2.65;;;2.45;;
76978;SDS011;65911;47.502;19.148;2022-12-10T02:47:57;3.67;;;2.63;;
76978;SDS011;65911;47.502;19.148;2022-12-10T02:51:06;2.78;;;2.58;;
76978;SDS011;65911;47.502;19.148;2022-12-10T03:08:09;3.17;;;2.80;;
76978;SDS011;65911;47.502;19.148;2022-12-10T03:11:21;3.03;;;2.38;;
76978;SDS011;65911;47.502;19.148;2022-12-10T03:14:25;3.08;;;2.28;;
76978;SDS011;65911;47.502;19.148;2022-12-10T03:17:30;3.38;;;2.53;;
76978;SDS011;65911;47.502;19.148;2022-12-10T03:20:33;2.88;;;2.63;;
76978;SDS011;65911;47.502;19.148;2022-12-10T03:23:40;2.25;;;2.05;;
76978;SDS011;65911;47.502;19.148;2022-12-10T03:26:43;2.50;;;2.30;;
76978;SDS011;65911;47.502;19.148;2022-12-10T03:29:48;2.10;;;1.90;;
76978;SDS011;65911;47.502;19.148;2022-12-10T03:32:52;2.30;;;2.08;;
76978;SDS011;65911;47.502;19.148;2022-12-10T03:35:55;2.67;;;2.47;;
76978;SDS011;65911;47.502;19.148;2022-12-10T03:38:58;2.78;;;2.20;;
76978;SDS011;65911;47.502;19.148;2022-12-10T03:42:01;2.72;;;2.30;;
76978;SDS011;65911;47.502;19.148;2022-12-10T03:45:03;2.72;;;2.45;;
76978;SDS011;65911;47.502;19.148;2022-12-10T03:48:06;2.55;;;2.35;;
76978;SDS011;65911;47.502;19.148;2022-12-10T03:51:08;2.47;;;2.20;;
76978;SDS011;65911;47.502;19.148;2022-12-10T03:54:10;2.30;;;2.10;;
76978;SDS011;65911;47.502;19.148;2022-12-10T03:57:12;2.57;;;2.33;;
76978;SDS011;65911;47.502;19.148;2022-12-10T04:00:15;2.50;;;2.30;;
76978;SDS011;65911;47.502;19.148;2022-12-10T04:03:17;2.97;;;2.30;;
76978;SDS011;65911;47.502;19.148;2022-12-10T04:06:20;2.70;;;2.50;;
76978;SDS011;65911;47.502;19.148;2022-12-10T04:09:22;2.30;;;1.90;;
76978;SDS011;65911;47.502;19.148;2022-12-10T04:12:24;2.60;;;2.30;;
76978;SDS011;65911;47.502;19.148;2022-12-10T04:15:26;2.88;;;2.15;;
76978;SDS011;65911;47.502;19.148;2022-12-10T04:18:47;2.20;;;2.00;;
76978;SDS011;65911;47.502;19.148;2022-12-10T04:21:49;2.42;;;2.08;;
76978;SDS011;65911;47.502;19.148;2022-12-10T04:25:12;2.78;;;2.10;;
76978;SDS011;65911;47.502;19.148;2022-12-10T04:28:33;2.77;;;2.00;;
76978;SDS011;65911;47.502;19.148;2022-12-10T04:31:35;2.42;;;1.85;;
76978;SDS011;65911;47.502;19.148;2022-12-10T04:34:38;2.25;;;2.03;;
76978;SDS011;65911;47.502;19.148;2022-12-10T04:37:40;2.20;;;2.00;;
76978;SDS011;65911;47.502;19.148;2022-12-10T04:40:42;2.45;;;2.00;;
76978;SDS011;65911;47.502;19.148;2022-12-10T04:43:44;2.03;;;1.80;;
76978;SDS011;65911;47.502;19.148;2022-12-10T04:46:47;2.85;;;2.25;;
76978;SDS011;65911;47.502;19.148;2022-12-10T04:49:49;2.38;;;1.80;;
76978;SDS011;65911;47.502;19.148;2022-12-10T04:52:51;2.40;;;1.80;;
76978;SDS011;65911;47.502;19.148;2022-12-10T04:55:53;2.70;;;2.50;;
76978;SDS011;65911;47.502;19.148;2022-12-10T04:58:56;2.63;;;1.93;;
76978;SDS011;65911;47.502;19.148;2022-12-10T05:01:58;2.35;;;1.98;;
76978;SDS011;65911;47.502;19.148;2022-12-10T05:05:01;3.22;;;2.45;;
76978;SDS011;65911;47.502;19.148;2022-12-10T05:08:03;2.60;;;2.17;;
76978;SDS011;65911;47.502;19.148;2022-12-10T05:11:07;2.70;;;2.10;;
76978;SDS011;65911;47.502;19.148;2022-12-10T05:14:11;2.42;;;2.10;;
76978;SDS011;65911;47.502;19.148;2022-12-10T05:17:15;2.30;;;1.90;;
76978;SDS011;65911;47.502;19.148;2022-12-10T05:20:17;3.00;;;2.70;;
76978;SDS011;65911;47.502;19.148;2022-12-10T05:23:19;2.30;;;1.92;;
76978;SDS011;65911;47.502;19.148;2022-12-10T05:26:29;2.60;;;2.10;;
76978;SDS011;65911;47.502;19.148;2022-12-10T05:29:32;2.37;;;1.83;;
76978;SDS011;65911;47.502;19.148;2022-12-10T05:32:35;2.92;;;2.30;;
76978;SDS011;65911;47.502;19.148;2022-12-10T05:35:37;2.25;;;2.00;;
76978;SDS011;65911;47.502;19.148;2022-12-10T05:38:39;4.03;;;2.50;;
76978;SDS011;65911;47.502;19.148;2022-12-10T05:41:42;2.80;;;2.40;;
76978;SDS011;65911;47.502;19.148;2022-12-10T05:44:46;3.45;;;2.30;;
76978;SDS011;65911;47.502;19.148;2022-12-10T05:47:48;2.50;;;2.28;;
76978;SDS011;65911;47.502;19.148;2022-12-10T05:50:50;2.92;;;2.55;;
76978;SDS011;65911;47.502;19.148;2022-12-10T05:53:52;2.83;;;2.33;;
76978;SDS011;65911;47.502;19.148;2022-12-10T05:56:55;2.78;;;2.10;;
76978;SDS011;65911;47.502;19.148;2022-12-10T05:59:57;2.63;;;2.40;;
76978;SDS011;65911;47.502;19.148;2022-12-10T06:02:59;2.17;;;1.98;;
76978;SDS011;65911;47.502;19.148;2022-12-10T06:06:01;2.20;;;1.70;;
76978;SDS011;65911;47.502;19.148;2022-12-10T06:09:05;2.67;;;2.03;;
76978;SDS011;65911;47.502;19.148;2022-12-10T06:12:09;2.55;;;2.15;;
76978;SDS011;65911;47.502;19.148;2022-12-10T06:15:11;2.22;;;2.03;;
76978;SDS011;65911;47.502;19.148;2022-12-10T06:18:13;2.53;;;2.15;;
76978;SDS011;65911;47.502;19.148;2022-12-10T06:21:16;2.88;;;2.30;;
76978;SDS011;65911;47.502;19.148;2022-12-10T06:24:18;2.50;;;2.30;;
76978;SDS011;65911;47.502;19.148;2022-12-10T06:27:22;2.38;;;2.17;;
76978;SDS011;65911;47.502;19.148;2022-12-10T06:30:24;3.17;;;2.07;;
76978;SDS011;65911;47.502;19.148;2022-12-10T06:33:26;2.05;;;1.77;;
76978;SDS011;65911;47.502;19.148;2022-12-10T06:36:29;2.30;;;2.10;;
76978;SDS011;65911;47.502;19.148;2022-12-10T06:39:31;2.20;;;2.00;;
76978;SDS011;65911;47.502;19.148;2022-12-10T06:42:33;2.15;;;1.95;;
76978;SDS011;65911;47.502;19.148;2022-12-10T06:45:39;2.13;;;1.83;;
76978;SDS011;65911;47.502;19.148;2022-12-10T06:48:42;2.42;;;2.20;;
76978;SDS011;65911;47.502;19.148;2022-12-10T06:51:44;2.67;;;2.30;;
76978;SDS011;65911;47.502;19.148;2022-12-10T06:54:46;2.28;;;2.08;;
76978;SDS011;65911;47.502;19.148;2022-12-10T06:57:52;2.38;;;1.88;;
76978;SDS011;65911;47.502;19.148;2022-12-10T07:00:54;2.13;;;1.93;;
76978;SDS011;65911;47.502;19.148;2022-12-10T07:04:03;2.60;;;2.40;;
76978;SDS011;65911;47.502;19.148;2022-12-10T07:07:06;2.67;;;2.28;;
76978;SDS011;65911;47.502;19.148;2022-12-10T07:10:10;3.07;;;2.40;;
76978;SDS011;65911;47.502;19.148;2022-12-10T07:13:13;2.35;;;1.80;;
76978;SDS011;65911;47.502;19.148;2022-12-10T07:19:21;2.17;;;1.98;;
76978;SDS011;65911;47.502;19.148;2022-12-10T07:22:23;2.10;;;1.90;;
76978;SDS011;65911;47.502;19.148;2022-12-10T07:25:25;2.00;;;1.80;;
76978;SDS011;65911;47.502;19.148;2022-12-10T07:28:27;2.42;;;2.22;;
76978;SDS011;65911;47.502;19.148;2022-12-10T07:31:35;2.40;;;2.00;;
76978;SDS011;65911;47.502;19.148;2022-12-10T07:34:37;2.45;;;2.17;;
76978;SDS011;65911;47.502;19.148;2022-12-10T07:37:39;2.05;;;1.70;;
76978;SDS011;65911;47.502;19.148;2022-12-10T07:40:42;2.10;;;1.73;;
76978;SDS011;65911;47.502;19.148;2022-12-10T07:43:46;2.75;;;2.13;;
76978;SDS011;65911;47.502;19.148;2022-12-10T07:46:49;2.80;;;2.20;;
76978;SDS011;65911;47.502;19.148;2022-12-10T07:49:51;2.60;;;2.28;;
76978;SDS011;65911;47.502;19.148;2022-12-10T07:52:53;2.85;;;1.88;;
76978;SDS011;65911;47.502;19.148;2022-12-10T07:55:55;2.42;;;2.22;;
76978;SDS011;65911;47.502;19.148;2022-12-10T07:58:58;2.75;;;2.22;;
76978;SDS011;65911;47.502;19.148;2022-12-10T08:02:00;2.33;;;2.10;;
76978;SDS011;65911;47.502;19.148;2022-12-10T08:05:09;2.60;;;1.98;;
76978;SDS011;65911;47.502;19.148;2022-12-10T08:08:12;2.25;;;1.95;;
76978;SDS011;65911;47.502;19.148;2022-12-10T08:11:15;4.10;;;2.27;;
76978;SDS011;65911;47.502;19.148;2022-12-10T08:14:18;2.40;;;2.20;;
76978;SDS011;65911;47.502;19.148;2022-12-10T08:17:20;2.67;;;2.47;;
76978;SDS011;65911;47.502;19.148;2022-12-10T08:20:22;3.28;;;2.50;;
76978;SDS011;65911;47.502;19.148;2022-12-10T08:23:25;2.80;;;2.60;;
76978;SDS011;65911;47.502;19.148;2022-12-10T08:26:28;2.63;;;2.40;;
76978;SDS011;65911;47.502;19.148;2022-12-10T08:29:31;2.40;;;2.00;;
76978;SDS011;65911;47.502;19.148;2022-12-10T08:32:34;2.07;;;1.87;;
76978;SDS011;65911;47.502;19.148;2022-12-10T08:35:36;2.85;;;2.55;;
76978;SDS011;65911;47.502;19.148;2022-12-10T08:38:38;2.70;;;2.50;;
76978;SDS011;65911;47.502;19.148;2022-12-10T08:41:41;2.93;;;2.63;;
76978;SDS011;65911;47.502;19.148;2022-12-10T08:44:44;2.67;;;2.22;;
76978;SDS011;65911;47.502;19.148;2022-12-10T08:47:46;2.75;;;2.25;;
76978;SDS011;65911;47.502;19.148;2022-12-10T08:50:48;2.67;;;2.40;;
76978;SDS011;65911;47.502;19.148;2022-12-10T08:53:50;2.70;;;2.30;;
76978;SDS011;65911;47.502;19.148;2022-12-10T08:56:53;2.72;;;2.42;;
76978;SDS011;65911;47.502;19.148;2022-12-10T08:59:55;2.85;;;2.22;;
76978;SDS011;65911;47.502;19.148;2022-12-10T09:02:57;2.20;;;2.00;;
76978;SDS011;65911;47.502;19.148;2022-12-10T09:06:05;2.60;;;2.33;;
76978;SDS011;65911;47.502;19.148;2022-12-10T09:09:10;2.35;;;2.15;;
76978;SDS011;65911;47.502;19.148;2022-12-10T09:12:12;2.50;;;2.30;;
76978;SDS011;65911;47.502;19.148;2022-12-10T09:15:14;2.30;;;1.92;;
76978;SDS011;65911;47.502;19.148;2022-12-10T09:18:16;2.75;;;2.17;;
76978;SDS011;65911;47.502;19.148;2022-12-10T09:21:18;3.00;;;2.60;;
76978;SDS011;65911;47.502;19.148;2022-12-10T09:24:20;2.63;;;2.42;;
76978;SDS011;65911;47.502;19.148;2022-12-10T09:27:23;2.25;;;2.03;;
76978;SDS011;65911;47.502;19.148;2022-12-10T09:30:25;2.17;;;1.98;;
76978;SDS011;65911;47.502;19.148;2022-12-10T09:33:27;2.50;;;2.30;;
76978;SDS011;65911;47.502;19.148;2022-12-10T09:36:30;2.70;;;2.05;;
76978;SDS011;65911;47.502;19.148;2022-12-10T09:39:34;2.47;;;1.73;;
76978;SDS011;65911;47.502;19.148;2022-12-10T09:42:39;3.30;;;2.30;;
76978;SDS011;65911;47.502;19.148;2022-12-10T09:52:19;3.60;;;2.10;;
76978;SDS011;65911;47.502;19.148;2022-12-10T09:55:36;2.15;;;1.80;;
76978;SDS011;65911;47.502;19.148;2022-12-10T09:58:41;2.63;;;2.35;;
76978;SDS011;65911;47.502;19.148;2022-12-10T10:01:43;2.33;;;2.13;;
76978;SDS011;65911;47.502;19.148;2022-12-10T10:04:45;2.40;;;1.90;;
76978;SDS011;65911;47.502;19.148;2022-12-10T10:07:48;2.92;;;2.60;;
76978;SDS011;65911;47.502;19.148;2022-12-10T10:10:54;2.88;;;2.13;;
76978;SDS011;65911;47.502;19.148;2022-12-10T10:14:09;2.53;;;2.10;;
76978;SDS011;65911;47.502;19.148;2022-12-10T10:20:35;2.83;;;2.33;;
76978;SDS011;65911;47.502;19.148;2022-12-10T10:23:40;2.67;;;2.38;;
76978;SDS011;65911;47.502;19.148;2022-12-10T10:26:43;2.47;;;2.05;;
76978;SDS011;65911;47.502;19.148;2022-12-10T10:29:49;2.67;;;2.40;;
76978;SDS011;65911;47.502;19.148;2022-12-10T10:32:58;3.15;;;2.50;;
76978;SDS011;65911;47.502;19.148;2022-12-10T10:36:10;2.70;;;2.33;;
76978;SDS011;65911;47.502;19.148;2022-12-10T10:45:38;3.63;;;2.87;;
76978;SDS011;65911;47.502;19.148;2022-12-10T10:48:42;3.50;;;2.25;;
76978;SDS011;65911;47.502;19.148;2022-12-10T10:51:44;3.15;;;2.30;;
76978;SDS011;65911;47.502;19.148;2022-12-10T10:54:49;3.20;;;2.53;;
76978;SDS011;65911;47.502;19.148;2022-12-10T10:57:51;3.08;;;2.78;;
76978;SDS011;65911;47.502;19.148;2022-12-10T11:01:04;2.88;;;2.47;;
76978;SDS011;65911;47.502;19.148;2022-12-10T11:04:07;2.88;;;2.35;;
76978;SDS011;65911;47.502;19.148;2022-12-10T11:07:16;3.23;;;2.20;;
76978;SDS011;65911;47.502;19.148;2022-12-10T11:10:23;2.88;;;2.58;;
76978;SDS011;65911;47.502;19.148;2022-12-10T11:13:27;3.03;;;2.22;;
76978;SDS011;65911;47.502;19.148;2022-12-10T11:16:30;3.10;;;2.33;;
76978;SDS011;65911;47.502;19.148;2022-12-10T11:19:33;3.17;;;2.70;;
76978;SDS011;65911;47.502;19.148;2022-12-10T11:22:35;3.58;;;2.90;;
76978;SDS011;65911;47.502;19.148;2022-12-10T11:32:20;2.78;;;2.50;;
76978;SDS011;65911;47.502;19.148;2022-12-10T11:39:07;2.97;;;2.40;;
76978;SDS011;65911;47.502;19.148;2022-12-10T11:42:45;3.53;;;2.58;;
76978;SDS011;65911;47.502;19.148;2022-12-10T11:52:38;2.97;;;2.15;;
76978;SDS011;65911;47.502;19.148;2022-12-10T11:55:50;2.90;;;2.60;;
76978;SDS011;65911;47.502;19.148;2022-12-10T12:09:27;3.33;;;2.90;;
76978;SDS011;65911;47.502;19.148;2022-12-10T12:12:44;3.90;;;2.83;;
76978;SDS011;65911;47.502;19.148;2022-12-10T12:16:16;4.35;;;3.45;;
76978;SDS011;65911;47.502;19.148;2022-12-10T12:19:44;3.85;;;3.38;;
76978;SDS011;65911;47.502;19.148;2022-12-10T12:22:47;3.60;;;3.03;;
76978;SDS011;65911;47.502;19.148;2022-12-10T12:25:57;3.92;;;3.35;;
76978;SDS011;65911;47.502;19.148;2022-12-10T12:32:20;3.67;;;3.28;;
76978;SDS011;65911;47.502;19.148;2022-12-10T12:35:44;4.32;;;3.75;;
76978;SDS011;65911;47.502;19.148;2022-12-10T12:39:10;5.13;;;3.63;;
76978;SDS011;65911;47.502;19.148;2022-12-10T12:48:44;4.70;;;3.65;;
76978;SDS011;65911;47.502;19.148;2022-12-10T12:55:02;4.93;;;3.30;;
76978;SDS011;65911;47.502;19.148;2022-12-10T12:58:13;5.28;;;3.70;;
76978;SDS011;65911;47.502;19.148;2022-12-10T13:01:21;5.20;;;4.30;;
76978;SDS011;65911;47.502;19.148;2022-12-10T13:04:27;6.22;;;4.68;;
76978;SDS011;65911;47.502;19.148;2022-12-10T13:07:31;4.88;;;3.80;;
76978;SDS011;65911;47.502;19.148;2022-12-10T13:10:45;5.07;;;3.88;;
76978;SDS011;65911;47.502;19.148;2022-12-10T13:17:22;4.90;;;3.80;;
76978;SDS011;65911;47.502;19.148;2022-12-10T13:20:29;6.13;;;4.10;;
76978;SDS011;65911;47.502;19.148;2022-12-10T13:23:33;6.65;;;4.47;;
76978;SDS011;65911;47.502;19.148;2022-12-10T13:27:01;6.33;;;4.53;;
76978;SDS011;65911;47.502;19.148;2022-12-10T13:33:17;5.13;;;4.28;;
76978;SDS011;65911;47.502;19.148;2022-12-10T13:36:23;5.43;;;4.35;;
76978;SDS011;65911;47.502;19.148;2022-12-10T13:39:42;5.03;;;4.25;;
76978;SDS011;65911;47.502;19.148;2022-12-10T13:42:54;5.30;;;4.50;;
76978;SDS011;65911;47.502;19.148;2022-12-10T13:46:30;6.70;;;4.35;;
76978;SDS011;65911;47.502;19.148;2022-12-10T13:49:53;5.90;;;4.50;;
76978;SDS011;65911;47.502;19.148;2022-12-10T13:56:35;5.55;;;4.30;;
76978;SDS011;65911;47.502;19.148;2022-12-10T13:59:47;5.73;;;4.20;;
76978;SDS011;65911;47.502;19.148;2022-12-10T14:03:08;6.00;;;4.40;;
76978;SDS011;65911;47.502;19.148;2022-12-10T14:06:48;7.05;;;5.20;;
76978;SDS011;65911;47.502;19.148;2022-12-10T14:09:53;5.90;;;4.38;;
76978;SDS011;65911;47.502;19.148;2022-12-10T14:12:57;6.90;;;4.32;;
76978;SDS011;65911;47.502;19.148;2022-12-10T14:16:00;5.35;;;4.32;;
76978;SDS011;65911;47.502;19.148;2022-12-10T14:19:04;8.05;;;4.88;;
76978;SDS011;65911;47.502;19.148;2022-12-10T14:22:08;6.33;;;4.50;;
76978;SDS011;65911;47.502;19.148;2022-12-10T14:25:19;5.95;;;4.93;;
76978;SDS011;65911;47.502;19.148;2022-12-10T14:28:23;6.55;;;4.68;;
76978;SDS011;65911;47.502;19.148;2022-12-10T14:31:30;8.20;;;5.00;;
76978;SDS011;65911;47.502;19.148;2022-12-10T14:34:36;6.63;;;4.80;;
76978;SDS011;65911;47.502;19.148;2022-12-10T14:37:40;6.55;;;5.13;;
76978;SDS011;65911;47.502;19.148;2022-12-10T14:40:43;6.65;;;4.93;;
76978;SDS011;65911;47.502;19.148;2022-12-10T14:43:45;6.50;;;4.90;;
76978;SDS011;65911;47.502;19.148;2022-12-10T14:46:47;6.55;;;5.00;;
76978;SDS011;65911;47.502;19.148;2022-12-10T14:49:52;7.22;;;5.25;;
76978;SDS011;65911;47.502;19.148;2022-12-10T14:52:56;6.17;;;4.87;;
76978;SDS011;65911;47.502;19.148;2022-12-10T14:55:59;6.07;;;4.60;;
76978;SDS011;65911;47.502;19.148;2022-12-10T14:59:05;7.10;;;5.25;;
76978;SDS011;65911;47.502;19.148;2022-12-10T15:02:22;6.97;;;4.97;;
76978;SDS011;65911;47.502;19.148;2022-12-10T15:05:27;6.35;;;4.75;;
76978;SDS011;65911;47.502;19.148;2022-12-10T15:08:33;6.32;;;4.63;;
76978;SDS011;65911;47.502;19.148;2022-12-10T15:11:35;5.95;;;4.80;;
76978;SDS011;65911;47.502;19.148;2022-12-10T15:14:37;6.38;;;4.82;;
76978;SDS011;65911;47.502;19.148;2022-12-10T15:17:53;6.13;;;4.88;;
76978;SDS011;65911;47.502;19.148;2022-12-10T15:21:05;7.38;;;5.38;;
76978;SDS011;65911;47.502;19.148;2022-12-10T15:24:20;7.03;;;4.70;;
76978;SDS011;65911;47.502;19.148;2022-12-10T15:27:24;6.53;;;5.40;;
76978;SDS011;65911;47.502;19.148;2022-12-10T15:30:37;6.57;;;5.15;;
76978;SDS011;65911;47.502;19.148;2022-12-10T15:33:50;5.90;;;4.60;;
76978;SDS011;65911;47.502;19.148;2022-12-10T15:36:55;6.68;;;4.75;;
76978;SDS011;65911;47.502;19.148;2022-12-10T15:40:04;6.82;;;5.15;;
76978;SDS011;65911;47.502;19.148;2022-12-10T15:43:41;7.25;;;5.30;;
76978;SDS011;65911;47.502;19.148;2022-12-10T15:46:46;7.75;;;5.00;;
76978;SDS011;65911;47.502;19.148;2022-12-10T15:49:50;7.47;;;5.78;;
76978;SDS011;65911;47.502;19.148;2022-12-10T15:52:56;7.07;;;5.13;;
76978;SDS011;65911;47.502;19.148;2022-12-10T15:55:58;7.13;;;5.00;;
76978;SDS011;65911;47.502;19.148;2022-12-10T15:59:01;7.93;;;5.00;;
76978;SDS011;65911;47.502;19.148;2022-12-10T16:02:03;7.25;;;5.35;;
76978;SDS011;65911;47.502;19.148;2022-12-10T16:05:21;6.83;;;5.10;;
76978;SDS011;65911;47.502;19.148;2022-12-10T16:08:30;6.63;;;4.75;;
76978;SDS011;65911;47.502;19.148;2022-12-10T16:11:36;8.10;;;5.25;;
76978;SDS011;65911;47.502;19.148;2022-12-10T16:14:39;6.78;;;5.18;;
76978;SDS011;65911;47.502;19.148;2022-12-10T16:17:42;6.43;;;4.85;;
76978;SDS011;65911;47.502;19.148;2022-12-10T16:20:45;6.60;;;5.32;;
76978;SDS011;65911;47.502;19.148;2022-12-10T16:23:48;7.40;;;5.75;;
76978;SDS011;65911;47.502;19.148;2022-12-10T16:26:50;7.77;;;5.20;;
76978;SDS011;65911;47.502;19.148;2022-12-10T16:29:52;7.38;;;5.30;;
76978;SDS011;65911;47.502;19.148;2022-12-10T16:32:55;6.28;;;4.88;;
76978;SDS011;65911;47.502;19.148;2022-12-10T16:35:57;6.47;;;4.97;;
76978;SDS011;65911;47.502;19.148;2022-12-10T16:38:59;7.45;;;5.20;;
76978;SDS011;65911;47.502;19.148;2022-12-10T16:42:01;7.18;;;4.80;;
76978;SDS011;65911;47.502;19.148;2022-12-10T16:45:13;7.25;;;5.07;;
76978;SDS011;65911;47.502;19.148;2022-12-10T16:48:20;7.07;;;5.40;;
76978;SDS011;65911;47.502;19.148;2022-12-10T16:51:23;6.88;;;5.15;;
76978;SDS011;65911;47.502;19.148;2022-12-10T16:54:30;7.22;;;4.97;;
76978;SDS011;65911;47.502;19.148;2022-12-10T16:57:32;5.90;;;4.43;;
76978;SDS011;65911;47.502;19.148;2022-12-10T17:00:36;6.97;;;5.18;;
76978;SDS011;65911;47.502;19.148;2022-12-10T17:03:38;7.88;;;5.38;;
76978;SDS011;65911;47.502;19.148;2022-12-10T17:06:40;7.20;;;5.47;;
76978;SDS011;65911;47.502;19.148;2022-12-10T17:09:42;8.07;;;5.30;;
76978;SDS011;65911;47.502;19.148;2022-12-10T17:12:45;6.40;;;5.20;;
76978;SDS011;65911;47.502;19.148;2022-12-10T17:15:47;8.68;;;5.50;;
76978;SDS011;65911;47.502;19.148;2022-12-10T17:18:49;6.95;;;5.47;;
76978;SDS011;65911;47.502;19.148;2022-12-10T17:21:51;7.18;;;5.03;;
76978;SDS011;65911;47.502;19.148;2022-12-10T17:24:53;7.35;;;5.22;;
76978;SDS011;65911;47.502;19.148;2022-12-10T17:27:56;7.20;;;4.90;;
76978;SDS011;65911;47.502;19.148;2022-12-10T17:30:59;7.68;;;5.55;;
76978;SDS011;65911;47.502;19.148;2022-12-10T17:34:01;6.20;;;5.15;;
76978;SDS011;65911;47.502;19.148;2022-12-10T17:37:07;7.17;;;5.50;;
76978;SDS011;65911;47.502;19.148;2022-12-10T17:40:18;7.72;;;5.15;;
76978;SDS011;65911;47.502;19.148;2022-12-10T17:43:21;7.55;;;5.13;;
76978;SDS011;65911;47.502;19.148;2022-12-10T17:46:24;8.82;;;6.05;;
76978;SDS011;65911;47.502;19.148;2022-12-10T17:49:27;8.30;;;5.43;;
76978;SDS011;65911;47.502;19.148;2022-12-10T17:52:29;6.85;;;5.40;;
76978;SDS011;65911;47.502;19.148;2022-12-10T17:55:31;8.43;;;5.70;;
76978;SDS011;65911;47.502;19.148;2022-12-10T17:58:33;7.63;;;5.63;;
76978;SDS011;65911;47.502;19.148;2022-12-10T18:01:37;7.90;;;5.15;;
76978;SDS011;65911;47.502;19.148;2022-12-10T18:04:45;6.75;;;5.05;;
76978;SDS011;65911;47.502;19.148;2022-12-10T18:07:47;7.43;;;5.70;;
76978;SDS011;65911;47.502;19.148;2022-12-10T18:10:50;7.38;;;5.25;;
76978;SDS011;65911;47.502;19.148;2022-12-10T18:13:54;6.63;;;5.03;;
76978;SDS011;65911;47.502;19.148;2022-12-10T18:16:57;8.07;;;5.15;;
76978;SDS011;65911;47.502;19.148;2022-12-10T18:19:59;7.40;;;5.70;;
76978;SDS011;65911;47.502;19.148;2022-12-10T18:23:01;6.32;;;4.88;;
76978;SDS011;65911;47.502;19.148;2022-12-10T18:26:08;6.65;;;5.28;;
76978;SDS011;65911;47.502;19.148;2022-12-10T18:29:12;7.83;;;5.43;;
76978;SDS011;65911;47.502;19.148;2022-12-10T18:32:15;7.53;;;5.10;;
76978;SDS011;65911;47.502;19.148;2022-12-10T18:35:18;7.25;;;5.07;;
76978;SDS011;65911;47.502;19.148;2022-12-10T18:38:20;7.47;;;4.90;;
76978;SDS011;65911;47.502;19.148;2022-12-10T18:41:22;7.95;;;5.10;;
76978;SDS011;65911;47.502;19.148;2022-12-10T18:44:26;6.95;;;4.85;;
76978;SDS011;65911;47.502;19.148;2022-12-10T18:47:29;7.00;;;5.68;;
76978;SDS011;65911;47.502;19.148;2022-12-10T18:50:32;6.85;;;5.43;;
76978;SDS011;65911;47.502;19.148;2022-12-10T18:53:35;7.30;;;5.03;;
76978;SDS011;65911;47.502;19.148;2022-12-10T18:56:38;6.47;;;5.32;;
76978;SDS011;65911;47.502;19.148;2022-12-10T18:59:41;7.13;;;4.67;;
76978;SDS011;65911;47.502;19.148;2022-12-10T19:02:43;8.25;;;5.55;;
76978;SDS011;65911;47.502;19.148;2022-12-10T19:05:46;7.57;;;5.10;;
76978;SDS011;65911;47.502;19.148;2022-12-10T19:08:48;7.60;;;5.30;;
76978;SDS011;65911;47.502;19.148;2022-12-10T19:12:11;6.88;;;4.50;;
76978;SDS011;65911;47.502;19.148;2022-12-10T19:15:14;7.25;;;5.22;;
76978;SDS011;65911;47.502;19.148;2022-12-10T19:18:19;8.13;;;5.57;;
76978;SDS011;65911;47.502;19.148;2022-12-10T19:21:21;7.25;;;4.97;;
76978;SDS011;65911;47.502;19.148;2022-12-10T19:24:23;7.22;;;5.32;;
76978;SDS011;65911;47.502;19.148;2022-12-10T19:27:26;6.85;;;4.90;;
76978;SDS011;65911;47.502;19.148;2022-12-10T19:30:29;6.53;;;4.83;;
76978;SDS011;65911;47.502;19.148;2022-12-10T19:33:31;6.60;;;4.90;;
76978;SDS011;65911;47.502;19.148;2022-12-10T19:36:33;6.75;;;5.00;;
76978;SDS011;65911;47.502;19.148;2022-12-10T19:39:37;7.00;;;5.03;;
76978;SDS011;65911;47.502;19.148;2022-12-10T19:42:39;6.93;;;5.10;;
76978;SDS011;65911;47.502;19.148;2022-12-10T19:45:41;7.40;;;5.03;;
76978;SDS011;65911;47.502;19.148;2022-12-10T19:48:43;6.90;;;5.07;;
76978;SDS011;65911;47.502;19.148;2022-12-10T19:51:46;8.65;;;5.60;;
76978;SDS011;65911;47.502;19.148;2022-12-10T19:54:48;5.93;;;4.78;;